sensor_id;sensor_type;location;lat;lon;timestamp;P1;durP1;ratioP1;P2;durP2;ratioP2
67528;SDS011;54366;51.980;5.856;2024-02-04T00:01:03;5.60;;;5.10;;
67528;SDS011;54366;51.980;5.856;2024-02-04T00:03:30;5.20;;;4.43;;
67528;SDS011;54366;51.980;5.856;2024-02-04T00:05:56;5.25;;;4.75;;
67528;SDS011;54366;51.980;5.856;2024-02-04T00:08:22;5.60;;;5.10;;
67528;SDS011;54366;51.980;5.856;2024-02-04T00:10:49;5.10;;;4.60;;
67528;SDS011;54366;51.980;5.856;2024-02-04T00:13:15;5.30;;;4.80;;
67528;SDS011;54366;51.980;5.856;2024-02-04T00:15:42;7.53;;;6.82;;
67528;SDS011;54366;51.980;5.856;2024-02-04T00:18:08;5.53;;;4.97;;
67528;SDS011;54366;51.980;5.856;2024-02-04T00:20:34;9.80;;;7.60;;
67528;SDS011;54366;51.980;5.856;2024-02-04T00:23:00;9.05;;;8.23;;
67528;SDS011;54366;51.980;5.856;2024-02-04T00:25:27;8.55;;;6.78;;
67528;SDS011;54366;51.980;5.856;2024-02-04T00:27:54;7.60;;;6.80;;
67528;SDS011;54366;51.980;5.856;2024-02-04T00:30:21;9.27;;;7.10;;
67528;SDS011;54366;51.980;5.856;2024-02-04T00:32:47;7.43;;;6.68;;
67528;SDS011;54366;51.980;5.856;2024-02-04T00:35:15;7.35;;;6.75;;
67528;SDS011;54366;51.980;5.856;2024-02-04T00:37:42;6.88;;;6.20;;
67528;SDS011;54366;51.980;5.856;2024-02-04T00:40:08;7.20;;;6.22;;
67528;SDS011;54366;51.980;5.856;2024-02-04T00:42:36;9.10;;;8.10;;
67528;SDS011;54366;51.980;5.856;2024-02-04T00:45:02;10.38;;;8.52;;
67528;SDS011;54366;51.980;5.856;2024-02-04T00:47:28;10.63;;;9.50;;
67528;SDS011;54366;51.980;5.856;2024-02-04T00:49:55;13.23;;;9.68;;
67528;SDS011;54366;51.980;5.856;2024-02-04T00:52:21;16.65;;;12.50;;
67528;SDS011;54366;51.980;5.856;2024-02-04T00:54:48;21.13;;;14.40;;
67528;SDS011;54366;51.980;5.856;2024-02-04T00:57:14;18.80;;;13.43;;
67528;SDS011;54366;51.980;5.856;2024-02-04T00:59:40;17.90;;;12.82;;
67528;SDS011;54366;51.980;5.856;2024-02-04T01:02:07;17.48;;;12.07;;
67528;SDS011;54366;51.980;5.856;2024-02-04T01:04:33;17.08;;;11.70;;
67528;SDS011;54366;51.980;5.856;2024-02-04T01:06:59;17.27;;;12.45;;
67528;SDS011;54366;51.980;5.856;2024-02-04T01:09:26;17.70;;;12.48;;
67528;SDS011;54366;51.980;5.856;2024-02-04T01:11:52;15.65;;;11.82;;
67528;SDS011;54366;51.980;5.856;2024-02-04T01:14:19;12.63;;;9.68;;
67528;SDS011;54366;51.980;5.856;2024-02-04T01:16:45;11.73;;;9.30;;
67528;SDS011;54366;51.980;5.856;2024-02-04T01:19:11;9.85;;;7.97;;
67528;SDS011;54366;51.980;5.856;2024-02-04T01:21:38;9.10;;;8.18;;
67528;SDS011;54366;51.980;5.856;2024-02-04T01:24:04;13.27;;;9.15;;
67528;SDS011;54366;51.980;5.856;2024-02-04T01:26:31;15.32;;;10.57;;
67528;SDS011;54366;51.980;5.856;2024-02-04T01:28:57;10.20;;;8.20;;
67528;SDS011;54366;51.980;5.856;2024-02-04T01:31:23;7.38;;;6.47;;
67528;SDS011;54366;51.980;5.856;2024-02-04T01:33:50;9.13;;;7.30;;
67528;SDS011;54366;51.980;5.856;2024-02-04T01:36:16;15.02;;;10.00;;
67528;SDS011;54366;51.980;5.856;2024-02-04T01:38:43;13.50;;;9.95;;
67528;SDS011;54366;51.980;5.856;2024-02-04T01:41:09;11.40;;;8.60;;
67528;SDS011;54366;51.980;5.856;2024-02-04T01:43:35;15.52;;;9.65;;
67528;SDS011;54366;51.980;5.856;2024-02-04T01:46:02;8.70;;;7.45;;
67528;SDS011;54366;51.980;5.856;2024-02-04T01:48:28;8.23;;;6.00;;
67528;SDS011;54366;51.980;5.856;2024-02-04T01:50:55;8.57;;;6.57;;
67528;SDS011;54366;51.980;5.856;2024-02-04T01:53:24;7.13;;;5.72;;
67528;SDS011;54366;51.980;5.856;2024-02-04T01:55:53;8.70;;;6.60;;
67528;SDS011;54366;51.980;5.856;2024-02-04T01:58:20;7.50;;;5.47;;
67528;SDS011;54366;51.980;5.856;2024-02-04T02:00:48;12.68;;;8.05;;
67528;SDS011;54366;51.980;5.856;2024-02-04T02:03:15;7.88;;;6.30;;
67528;SDS011;54366;51.980;5.856;2024-02-04T02:05:42;6.88;;;5.60;;
67528;SDS011;54366;51.980;5.856;2024-02-04T02:08:08;6.00;;;5.32;;
67528;SDS011;54366;51.980;5.856;2024-02-04T02:10:35;6.03;;;4.47;;
67528;SDS011;54366;51.980;5.856;2024-02-04T02:13:14;7.25;;;5.55;;
67528;SDS011;54366;51.980;5.856;2024-02-04T02:15:44;6.15;;;5.03;;
67528;SDS011;54366;51.980;5.856;2024-02-04T02:18:58;4.78;;;3.88;;
67528;SDS011;54366;51.980;5.856;2024-02-04T02:27:09;5.20;;;4.00;;
67528;SDS011;54366;51.980;5.856;2024-02-04T02:29:35;6.30;;;4.70;;
67528;SDS011;54366;51.980;5.856;2024-02-04T02:32:01;8.52;;;5.43;;
67528;SDS011;54366;51.980;5.856;2024-02-04T02:34:31;5.53;;;4.57;;
67528;SDS011;54366;51.980;5.856;2024-02-04T02:37:03;12.13;;;7.43;;
67528;SDS011;54366;51.980;5.856;2024-02-04T02:39:56;9.05;;;6.25;;
67528;SDS011;54366;51.980;5.856;2024-02-04T02:42:31;10.40;;;7.45;;
67528;SDS011;54366;51.980;5.856;2024-02-04T02:44:59;9.32;;;6.70;;
67528;SDS011;54366;51.980;5.856;2024-02-04T02:47:27;7.65;;;6.10;;
67528;SDS011;54366;51.980;5.856;2024-02-04T02:49:55;11.07;;;7.13;;
67528;SDS011;54366;51.980;5.856;2024-02-04T02:52:21;6.90;;;6.22;;
67528;SDS011;54366;51.980;5.856;2024-02-04T02:54:47;7.10;;;5.47;;
67528;SDS011;54366;51.980;5.856;2024-02-04T02:57:14;8.82;;;6.15;;
67528;SDS011;54366;51.980;5.856;2024-02-04T02:59:40;5.30;;;4.40;;
67528;SDS011;54366;51.980;5.856;2024-02-04T03:02:07;8.32;;;6.95;;
67528;SDS011;54366;51.980;5.856;2024-02-04T03:04:33;10.68;;;7.07;;
67528;SDS011;54366;51.980;5.856;2024-02-04T03:06:59;7.65;;;6.65;;
67528;SDS011;54366;51.980;5.856;2024-02-04T03:09:26;8.63;;;7.15;;
67528;SDS011;54366;51.980;5.856;2024-02-04T03:11:53;5.97;;;5.35;;
67528;SDS011;54366;51.980;5.856;2024-02-04T03:14:19;7.35;;;5.80;;
67528;SDS011;54366;51.980;5.856;2024-02-04T03:16:46;13.60;;;8.80;;
67528;SDS011;54366;51.980;5.856;2024-02-04T03:19:12;9.63;;;7.93;;
67528;SDS011;54366;51.980;5.856;2024-02-04T03:21:39;11.60;;;8.20;;
67528;SDS011;54366;51.980;5.856;2024-02-04T03:24:05;12.63;;;8.40;;
67528;SDS011;54366;51.980;5.856;2024-02-04T03:26:31;11.25;;;8.00;;
67528;SDS011;54366;51.980;5.856;2024-02-04T03:28:58;11.25;;;7.32;;
67528;SDS011;54366;51.980;5.856;2024-02-04T03:31:24;9.52;;;8.07;;
67528;SDS011;54366;51.980;5.856;2024-02-04T03:33:51;10.52;;;8.57;;
67528;SDS011;54366;51.980;5.856;2024-02-04T03:36:18;10.07;;;7.80;;
67528;SDS011;54366;51.980;5.856;2024-02-04T03:38:48;13.15;;;10.00;;
67528;SDS011;54366;51.980;5.856;2024-02-04T03:41:15;15.80;;;10.75;;
67528;SDS011;54366;51.980;5.856;2024-02-04T03:43:41;12.70;;;9.95;;
67528;SDS011;54366;51.980;5.856;2024-02-04T03:46:08;14.50;;;11.88;;
67528;SDS011;54366;51.980;5.856;2024-02-04T03:48:38;15.68;;;11.43;;
67528;SDS011;54366;51.980;5.856;2024-02-04T03:51:04;16.63;;;11.55;;
67528;SDS011;54366;51.980;5.856;2024-02-04T03:53:30;14.25;;;10.48;;
67528;SDS011;54366;51.980;5.856;2024-02-04T03:55:57;13.65;;;8.75;;
67528;SDS011;54366;51.980;5.856;2024-02-04T03:58:23;9.73;;;8.73;;
67528;SDS011;54366;51.980;5.856;2024-02-04T04:00:55;8.77;;;7.13;;
67528;SDS011;54366;51.980;5.856;2024-02-04T04:03:22;8.68;;;7.57;;
67528;SDS011;54366;51.980;5.856;2024-02-04T04:05:49;10.35;;;7.05;;
67528;SDS011;54366;51.980;5.856;2024-02-04T04:08:16;10.25;;;7.00;;
67528;SDS011;54366;51.980;5.856;2024-02-04T04:10:43;12.63;;;8.35;;
67528;SDS011;54366;51.980;5.856;2024-02-04T04:13:10;8.45;;;6.30;;
67528;SDS011;54366;51.980;5.856;2024-02-04T04:15:36;7.82;;;6.07;;
67528;SDS011;54366;51.980;5.856;2024-02-04T04:18:03;8.25;;;5.72;;
67528;SDS011;54366;51.980;5.856;2024-02-04T04:20:30;8.52;;;5.35;;
67528;SDS011;54366;51.980;5.856;2024-02-04T04:22:56;5.38;;;4.38;;
67528;SDS011;54366;51.980;5.856;2024-02-04T04:25:23;8.18;;;4.80;;
67528;SDS011;54366;51.980;5.856;2024-02-04T04:27:49;5.53;;;4.45;;
67528;SDS011;54366;51.980;5.856;2024-02-04T04:30:15;5.53;;;4.43;;
67528;SDS011;54366;51.980;5.856;2024-02-04T04:32:42;6.47;;;4.45;;
67528;SDS011;54366;51.980;5.856;2024-02-04T04:35:08;6.15;;;4.75;;
67528;SDS011;54366;51.980;5.856;2024-02-04T04:37:34;6.68;;;4.78;;
67528;SDS011;54366;51.980;5.856;2024-02-04T04:40:01;7.05;;;6.32;;
67528;SDS011;54366;51.980;5.856;2024-02-04T04:42:27;11.00;;;8.23;;
67528;SDS011;54366;51.980;5.856;2024-02-04T04:44:53;10.18;;;7.45;;
67528;SDS011;54366;51.980;5.856;2024-02-04T04:47:19;7.63;;;6.10;;
67528;SDS011;54366;51.980;5.856;2024-02-04T04:49:46;9.75;;;6.55;;
67528;SDS011;54366;51.980;5.856;2024-02-04T04:52:12;14.32;;;8.82;;
67528;SDS011;54366;51.980;5.856;2024-02-04T04:54:39;9.75;;;6.50;;
67528;SDS011;54366;51.980;5.856;2024-02-04T04:57:06;8.43;;;5.97;;
67528;SDS011;54366;51.980;5.856;2024-02-04T04:59:32;6.40;;;5.40;;
67528;SDS011;54366;51.980;5.856;2024-02-04T05:01:58;12.27;;;7.20;;
67528;SDS011;54366;51.980;5.856;2024-02-04T05:04:25;9.85;;;7.05;;
67528;SDS011;54366;51.980;5.856;2024-02-04T05:06:51;10.55;;;7.90;;
67528;SDS011;54366;51.980;5.856;2024-02-04T05:09:17;13.48;;;8.88;;
67528;SDS011;54366;51.980;5.856;2024-02-04T05:11:44;11.60;;;8.48;;
67528;SDS011;54366;51.980;5.856;2024-02-04T05:14:10;11.27;;;7.78;;
67528;SDS011;54366;51.980;5.856;2024-02-04T05:16:36;10.80;;;7.50;;
67528;SDS011;54366;51.980;5.856;2024-02-04T05:19:03;10.32;;;6.53;;
67528;SDS011;54366;51.980;5.856;2024-02-04T05:21:29;10.80;;;6.70;;
67528;SDS011;54366;51.980;5.856;2024-02-04T05:23:55;9.55;;;5.90;;
67528;SDS011;54366;51.980;5.856;2024-02-04T05:26:21;7.82;;;5.35;;
67528;SDS011;54366;51.980;5.856;2024-02-04T05:28:48;8.98;;;6.22;;
67528;SDS011;54366;51.980;5.856;2024-02-04T05:31:14;8.13;;;5.70;;
67528;SDS011;54366;51.980;5.856;2024-02-04T05:33:40;8.98;;;6.43;;
67528;SDS011;54366;51.980;5.856;2024-02-04T05:36:07;7.88;;;5.40;;
67528;SDS011;54366;51.980;5.856;2024-02-04T05:38:33;8.23;;;5.78;;
67528;SDS011;54366;51.980;5.856;2024-02-04T05:40:59;5.88;;;4.93;;
67528;SDS011;54366;51.980;5.856;2024-02-04T05:43:26;7.25;;;5.57;;
67528;SDS011;54366;51.980;5.856;2024-02-04T05:45:52;10.27;;;6.60;;
67528;SDS011;54366;51.980;5.856;2024-02-04T05:48:18;8.95;;;6.53;;
67528;SDS011;54366;51.980;5.856;2024-02-04T05:50:45;9.90;;;7.05;;
67528;SDS011;54366;51.980;5.856;2024-02-04T05:53:11;8.82;;;6.28;;
67528;SDS011;54366;51.980;5.856;2024-02-04T05:55:38;9.68;;;6.28;;
67528;SDS011;54366;51.980;5.856;2024-02-04T05:58:05;11.80;;;7.10;;
67528;SDS011;54366;51.980;5.856;2024-02-04T06:00:31;7.40;;;5.40;;
67528;SDS011;54366;51.980;5.856;2024-02-04T06:02:57;6.95;;;5.10;;
67528;SDS011;54366;51.980;5.856;2024-02-04T06:05:23;7.47;;;5.25;;
67528;SDS011;54366;51.980;5.856;2024-02-04T06:07:50;6.03;;;5.00;;
67528;SDS011;54366;51.980;5.856;2024-02-04T06:10:16;6.90;;;5.93;;
67528;SDS011;54366;51.980;5.856;2024-02-04T06:12:44;8.10;;;5.65;;
67528;SDS011;54366;51.980;5.856;2024-02-04T06:15:14;9.30;;;6.05;;
67528;SDS011;54366;51.980;5.856;2024-02-04T06:17:41;7.50;;;4.97;;
67528;SDS011;54366;51.980;5.856;2024-02-04T06:20:08;6.38;;;5.25;;
67528;SDS011;54366;51.980;5.856;2024-02-04T06:22:35;6.97;;;5.63;;
67528;SDS011;54366;51.980;5.856;2024-02-04T06:25:02;8.52;;;6.28;;
67528;SDS011;54366;51.980;5.856;2024-02-04T06:27:29;10.75;;;7.05;;
67528;SDS011;54366;51.980;5.856;2024-02-04T06:29:56;11.10;;;7.15;;
67528;SDS011;54366;51.980;5.856;2024-02-04T06:32:23;8.45;;;6.20;;
67528;SDS011;54366;51.980;5.856;2024-02-04T06:34:50;8.68;;;6.25;;
67528;SDS011;54366;51.980;5.856;2024-02-04T06:37:17;7.93;;;5.60;;
67528;SDS011;54366;51.980;5.856;2024-02-04T06:39:43;5.32;;;4.82;;
67528;SDS011;54366;51.980;5.856;2024-02-04T06:42:09;6.07;;;5.00;;
67528;SDS011;54366;51.980;5.856;2024-02-04T06:44:35;8.30;;;7.30;;
67528;SDS011;54366;51.980;5.856;2024-02-04T06:47:02;11.00;;;8.02;;
67528;SDS011;54366;51.980;5.856;2024-02-04T06:49:28;10.05;;;8.98;;
67528;SDS011;54366;51.980;5.856;2024-02-04T06:51:54;9.73;;;8.73;;
67528;SDS011;54366;51.980;5.856;2024-02-04T06:54:23;12.50;;;11.20;;
67528;SDS011;54366;51.980;5.856;2024-02-04T06:59:17;10.50;;;9.27;;
67528;SDS011;54366;51.980;5.856;2024-02-04T07:01:43;12.25;;;10.98;;
67528;SDS011;54366;51.980;5.856;2024-02-04T07:04:10;17.45;;;14.50;;
67528;SDS011;54366;51.980;5.856;2024-02-04T07:06:36;15.70;;;14.10;;
67528;SDS011;54366;51.980;5.856;2024-02-04T07:09:02;17.00;;;15.20;;
67528;SDS011;54366;51.980;5.856;2024-02-04T07:11:29;17.50;;;14.80;;
67528;SDS011;54366;51.980;5.856;2024-02-04T07:13:55;13.73;;;12.32;;
67528;SDS011;54366;51.980;5.856;2024-02-04T07:16:25;17.08;;;14.73;;
67528;SDS011;54366;51.980;5.856;2024-02-04T07:18:52;12.63;;;11.38;;
67528;SDS011;54366;51.980;5.856;2024-02-04T07:21:18;11.18;;;10.18;;
67528;SDS011;54366;51.980;5.856;2024-02-04T07:23:44;9.38;;;8.48;;
67528;SDS011;54366;51.980;5.856;2024-02-04T07:26:11;10.13;;;8.93;;
67528;SDS011;54366;51.980;5.856;2024-02-04T07:28:37;8.93;;;8.13;;
67528;SDS011;54366;51.980;5.856;2024-02-04T07:31:04;10.75;;;9.65;;
67528;SDS011;54366;51.980;5.856;2024-02-04T07:33:30;9.55;;;8.55;;
67528;SDS011;54366;51.980;5.856;2024-02-04T07:35:56;20.33;;;14.88;;
67528;SDS011;54366;51.980;5.856;2024-02-04T07:38:23;13.20;;;11.20;;
67528;SDS011;54366;51.980;5.856;2024-02-04T07:40:49;11.63;;;9.90;;
67528;SDS011;54366;51.980;5.856;2024-02-04T07:43:15;15.27;;;11.20;;
67528;SDS011;54366;51.980;5.856;2024-02-04T07:45:41;16.25;;;11.63;;
67528;SDS011;54366;51.980;5.856;2024-02-04T07:48:08;17.10;;;11.68;;
67528;SDS011;54366;51.980;5.856;2024-02-04T07:50:35;15.52;;;12.02;;
67528;SDS011;54366;51.980;5.856;2024-02-04T07:53:01;17.27;;;11.20;;
67528;SDS011;54366;51.980;5.856;2024-02-04T07:55:27;17.15;;;11.07;;
67528;SDS011;54366;51.980;5.856;2024-02-04T07:57:54;14.13;;;9.13;;
67528;SDS011;54366;51.980;5.856;2024-02-04T08:00:20;15.57;;;9.85;;
67528;SDS011;54366;51.980;5.856;2024-02-04T08:02:46;11.95;;;9.57;;
67528;SDS011;54366;51.980;5.856;2024-02-04T08:05:13;11.15;;;8.93;;
67528;SDS011;54366;51.980;5.856;2024-02-04T08:07:39;9.95;;;7.32;;
67528;SDS011;54366;51.980;5.856;2024-02-04T08:10:06;14.48;;;9.77;;
67528;SDS011;54366;51.980;5.856;2024-02-04T08:12:33;15.05;;;9.05;;
67528;SDS011;54366;51.980;5.856;2024-02-04T08:15:00;13.43;;;8.60;;
67528;SDS011;54366;51.980;5.856;2024-02-04T08:17:26;11.43;;;7.63;;
67528;SDS011;54366;51.980;5.856;2024-02-04T08:19:56;9.38;;;6.78;;
67528;SDS011;54366;51.980;5.856;2024-02-04T08:22:23;9.55;;;7.03;;
67528;SDS011;54366;51.980;5.856;2024-02-04T08:24:49;12.38;;;7.35;;
67528;SDS011;54366;51.980;5.856;2024-02-04T08:27:16;9.32;;;6.72;;
67528;SDS011;54366;51.980;5.856;2024-02-04T08:29:43;8.50;;;6.35;;
67528;SDS011;54366;51.980;5.856;2024-02-04T08:32:10;10.82;;;6.65;;
67528;SDS011;54366;51.980;5.856;2024-02-04T08:34:38;12.63;;;6.97;;
67528;SDS011;54366;51.980;5.856;2024-02-04T08:37:04;7.68;;;5.82;;
67528;SDS011;54366;51.980;5.856;2024-02-04T08:39:31;7.50;;;5.63;;
67528;SDS011;54366;51.980;5.856;2024-02-04T08:41:57;7.88;;;4.95;;
67528;SDS011;54366;51.980;5.856;2024-02-04T08:44:24;9.93;;;5.85;;
67528;SDS011;54366;51.980;5.856;2024-02-04T08:46:50;8.68;;;4.90;;
67528;SDS011;54366;51.980;5.856;2024-02-04T08:49:16;11.27;;;6.30;;
67528;SDS011;54366;51.980;5.856;2024-02-04T08:51:42;8.65;;;5.22;;
67528;SDS011;54366;51.980;5.856;2024-02-04T08:54:09;8.18;;;4.93;;
67528;SDS011;54366;51.980;5.856;2024-02-04T08:56:35;5.78;;;4.28;;
67528;SDS011;54366;51.980;5.856;2024-02-04T08:59:01;6.32;;;3.90;;
67528;SDS011;54366;51.980;5.856;2024-02-04T09:01:28;9.35;;;4.60;;
67528;SDS011;54366;51.980;5.856;2024-02-04T09:03:54;8.15;;;4.93;;
67528;SDS011;54366;51.980;5.856;2024-02-04T09:06:20;6.05;;;3.78;;
67528;SDS011;54366;51.980;5.856;2024-02-04T09:08:46;7.65;;;5.03;;
67528;SDS011;54366;51.980;5.856;2024-02-04T09:11:13;7.60;;;4.68;;
67528;SDS011;54366;51.980;5.856;2024-02-04T09:13:44;8.18;;;5.07;;
67528;SDS011;54366;51.980;5.856;2024-02-04T09:16:11;5.90;;;4.63;;
67528;SDS011;54366;51.980;5.856;2024-02-04T09:18:37;6.50;;;4.13;;
67528;SDS011;54366;51.980;5.856;2024-02-04T09:21:03;6.72;;;4.32;;
67528;SDS011;54366;51.980;5.856;2024-02-04T09:23:30;6.15;;;4.50;;
67528;SDS011;54366;51.980;5.856;2024-02-04T09:25:56;6.55;;;4.03;;
67528;SDS011;54366;51.980;5.856;2024-02-04T09:28:22;6.03;;;5.43;;
67528;SDS011;54366;51.980;5.856;2024-02-04T09:30:49;10.40;;;6.32;;
67528;SDS011;54366;51.980;5.856;2024-02-04T09:33:15;6.57;;;5.30;;
67528;SDS011;54366;51.980;5.856;2024-02-04T09:35:41;10.00;;;6.70;;
67528;SDS011;54366;51.980;5.856;2024-02-04T09:38:08;9.90;;;7.30;;
67528;SDS011;54366;51.980;5.856;2024-02-04T09:40:34;7.65;;;5.93;;
67528;SDS011;54366;51.980;5.856;2024-02-04T09:43:00;7.65;;;5.70;;
67528;SDS011;54366;51.980;5.856;2024-02-04T09:45:27;8.88;;;6.22;;
67528;SDS011;54366;51.980;5.856;2024-02-04T09:47:55;9.02;;;6.68;;
67528;SDS011;54366;51.980;5.856;2024-02-04T09:50:22;8.82;;;6.45;;
67528;SDS011;54366;51.980;5.856;2024-02-04T09:52:48;8.45;;;5.63;;
67528;SDS011;54366;51.980;5.856;2024-02-04T09:55:19;7.38;;;5.63;;
67528;SDS011;54366;51.980;5.856;2024-02-04T09:57:47;6.97;;;5.65;;
67528;SDS011;54366;51.980;5.856;2024-02-04T10:00:13;5.70;;;4.40;;
67528;SDS011;54366;51.980;5.856;2024-02-04T10:02:43;8.93;;;5.25;;
67528;SDS011;54366;51.980;5.856;2024-02-04T10:05:10;8.38;;;4.80;;
67528;SDS011;54366;51.980;5.856;2024-02-04T10:07:37;7.32;;;3.85;;
67528;SDS011;54366;51.980;5.856;2024-02-04T10:10:04;7.70;;;4.00;;
67528;SDS011;54366;51.980;5.856;2024-02-04T10:12:32;7.63;;;4.03;;
67528;SDS011;54366;51.980;5.856;2024-02-04T10:15:01;5.45;;;4.05;;
67528;SDS011;54366;51.980;5.856;2024-02-04T10:17:30;7.90;;;4.22;;
67528;SDS011;54366;51.980;5.856;2024-02-04T10:19:57;6.57;;;3.60;;
67528;SDS011;54366;51.980;5.856;2024-02-04T10:22:25;5.03;;;3.38;;
67528;SDS011;54366;51.980;5.856;2024-02-04T10:24:53;6.97;;;3.50;;
67528;SDS011;54366;51.980;5.856;2024-02-04T10:27:19;5.40;;;3.42;;
67528;SDS011;54366;51.980;5.856;2024-02-04T10:29:46;6.55;;;3.42;;
67528;SDS011;54366;51.980;5.856;2024-02-04T10:32:12;7.05;;;3.28;;
67528;SDS011;54366;51.980;5.856;2024-02-04T10:34:38;4.47;;;2.90;;
67528;SDS011;54366;51.980;5.856;2024-02-04T10:37:05;4.10;;;2.63;;
67528;SDS011;54366;51.980;5.856;2024-02-04T10:39:32;5.28;;;3.00;;
67528;SDS011;54366;51.980;5.856;2024-02-04T10:42:01;4.90;;;2.70;;
67528;SDS011;54366;51.980;5.856;2024-02-04T10:44:29;5.03;;;2.55;;
67528;SDS011;54366;51.980;5.856;2024-02-04T10:47:00;5.65;;;2.38;;
67528;SDS011;54366;51.980;5.856;2024-02-04T10:49:32;3.65;;;2.13;;
67528;SDS011;54366;51.980;5.856;2024-02-04T10:52:04;3.67;;;1.80;;
67528;SDS011;54366;51.980;5.856;2024-02-04T10:54:33;4.90;;;2.10;;
67528;SDS011;54366;51.980;5.856;2024-02-04T10:57:05;2.22;;;1.80;;
67528;SDS011;54366;51.980;5.856;2024-02-04T10:59:37;3.38;;;2.00;;
67528;SDS011;54366;51.980;5.856;2024-02-04T11:02:05;3.60;;;1.48;;
67528;SDS011;54366;51.980;5.856;2024-02-04T11:04:32;3.80;;;1.58;;
67528;SDS011;54366;51.980;5.856;2024-02-04T11:07:00;3.70;;;1.20;;
67528;SDS011;54366;51.980;5.856;2024-02-04T11:09:29;3.17;;;1.13;;
67528;SDS011;54366;51.980;5.856;2024-02-04T11:11:55;3.20;;;1.20;;
67528;SDS011;54366;51.980;5.856;2024-02-04T11:14:24;3.38;;;1.45;;
67528;SDS011;54366;51.980;5.856;2024-02-04T11:20:25;1.92;;;0.95;;
67528;SDS011;54366;51.980;5.856;2024-02-04T11:23:20;2.65;;;0.93;;
67528;SDS011;54366;51.980;5.856;2024-02-04T11:26:09;2.35;;;1.20;;
67528;SDS011;54366;51.980;5.856;2024-02-04T11:28:36;2.40;;;1.00;;
67528;SDS011;54366;51.980;5.856;2024-02-04T11:31:04;2.35;;;0.82;;
67528;SDS011;54366;51.980;5.856;2024-02-04T11:33:38;2.30;;;0.77;;
67528;SDS011;54366;51.980;5.856;2024-02-04T11:36:05;1.25;;;0.50;;
67528;SDS011;54366;51.980;5.856;2024-02-04T11:38:35;0.30;;;0.30;;
67528;SDS011;54366;51.980;5.856;2024-02-04T11:41:03;0.52;;;0.38;;
67528;SDS011;54366;51.980;5.856;2024-02-04T11:43:32;0.30;;;0.30;;
67528;SDS011;54366;51.980;5.856;2024-02-04T11:45:58;1.67;;;0.30;;
67528;SDS011;54366;51.980;5.856;2024-02-04T11:48:29;0.47;;;0.22;;
67528;SDS011;54366;51.980;5.856;2024-02-04T11:50:57;1.15;;;0.20;;
67528;SDS011;54366;51.980;5.856;2024-02-04T11:53:28;0.75;;;0.45;;
67528;SDS011;54366;51.980;5.856;2024-02-04T11:56:00;0.25;;;0.25;;
67528;SDS011;54366;51.980;5.856;2024-02-04T11:58:28;0.47;;;0.30;;
67528;SDS011;54366;51.980;5.856;2024-02-04T12:00:56;0.95;;;0.30;;
67528;SDS011;54366;51.980;5.856;2024-02-04T12:03:32;0.43;;;0.35;;
67528;SDS011;54366;51.980;5.856;2024-02-04T12:05:59;1.05;;;0.95;;
67528;SDS011;54366;51.980;5.856;2024-02-04T12:08:26;0.70;;;0.70;;
67528;SDS011;54366;51.980;5.856;2024-02-04T12:10:54;1.20;;;1.10;;
67528;SDS011;54366;51.980;5.856;2024-02-04T12:13:20;1.92;;;1.60;;
67528;SDS011;54366;51.980;5.856;2024-02-04T12:15:47;2.60;;;1.50;;
67528;SDS011;54366;51.980;5.856;2024-02-04T12:18:14;3.35;;;2.70;;
67528;SDS011;54366;51.980;5.856;2024-02-04T12:20:45;3.40;;;2.28;;
67528;SDS011;54366;51.980;5.856;2024-02-04T12:23:14;2.22;;;1.55;;
67528;SDS011;54366;51.980;5.856;2024-02-04T12:25:41;1.95;;;1.75;;
67528;SDS011;54366;51.980;5.856;2024-02-04T12:28:08;2.33;;;2.00;;
67528;SDS011;54366;51.980;5.856;2024-02-04T12:30:34;4.47;;;2.30;;
67528;SDS011;54366;51.980;5.856;2024-02-04T12:33:02;6.22;;;3.83;;
67528;SDS011;54366;51.980;5.856;2024-02-04T12:35:30;4.15;;;3.03;;
67528;SDS011;54366;51.980;5.856;2024-02-04T12:37:57;4.78;;;3.25;;
67528;SDS011;54366;51.980;5.856;2024-02-04T12:40:25;4.32;;;3.10;;
67528;SDS011;54366;51.980;5.856;2024-02-04T12:42:59;5.88;;;3.10;;
67528;SDS011;54366;51.980;5.856;2024-02-04T12:45:27;4.03;;;2.65;;
67528;SDS011;54366;51.980;5.856;2024-02-04T12:47:57;4.47;;;2.92;;
67528;SDS011;54366;51.980;5.856;2024-02-04T12:50:24;7.93;;;3.80;;
67528;SDS011;54366;51.980;5.856;2024-02-04T12:53:07;5.22;;;3.40;;
67528;SDS011;54366;51.980;5.856;2024-02-04T12:55:37;5.65;;;3.40;;
67528;SDS011;54366;51.980;5.856;2024-02-04T12:58:07;4.53;;;2.80;;
67528;SDS011;54366;51.980;5.856;2024-02-04T13:00:35;5.68;;;3.30;;
67528;SDS011;54366;51.980;5.856;2024-02-04T13:03:03;8.98;;;3.47;;
67528;SDS011;54366;51.980;5.856;2024-02-04T13:05:30;10.07;;;4.40;;
67528;SDS011;54366;51.980;5.856;2024-02-04T13:08:00;5.97;;;3.53;;
67528;SDS011;54366;51.980;5.856;2024-02-04T13:10:35;6.72;;;3.50;;
67528;SDS011;54366;51.980;5.856;2024-02-04T13:13:03;6.82;;;3.47;;
67528;SDS011;54366;51.980;5.856;2024-02-04T13:15:37;6.13;;;3.00;;
67528;SDS011;54366;51.980;5.856;2024-02-04T13:18:09;8.80;;;3.78;;
67528;SDS011;54366;51.980;5.856;2024-02-04T13:20:40;8.85;;;3.20;;
67528;SDS011;54366;51.980;5.856;2024-02-04T13:23:07;6.30;;;2.75;;
67528;SDS011;54366;51.980;5.856;2024-02-04T13:25:34;8.18;;;3.42;;
67528;SDS011;54366;51.980;5.856;2024-02-04T13:28:01;7.68;;;3.08;;
67528;SDS011;54366;51.980;5.856;2024-02-04T13:30:27;4.25;;;2.78;;
67528;SDS011;54366;51.980;5.856;2024-02-04T13:32:54;8.95;;;3.70;;
67528;SDS011;54366;51.980;5.856;2024-02-04T13:35:20;6.93;;;2.95;;
67528;SDS011;54366;51.980;5.856;2024-02-04T13:37:47;7.03;;;2.90;;
67528;SDS011;54366;51.980;5.856;2024-02-04T13:40:16;6.13;;;2.60;;
67528;SDS011;54366;51.980;5.856;2024-02-04T13:42:44;4.07;;;2.60;;
67528;SDS011;54366;51.980;5.856;2024-02-04T13:45:11;6.80;;;3.40;;
67528;SDS011;54366;51.980;5.856;2024-02-04T13:47:42;5.32;;;3.05;;
67528;SDS011;54366;51.980;5.856;2024-02-04T13:50:09;8.15;;;3.90;;
67528;SDS011;54366;51.980;5.856;2024-02-04T13:52:36;7.32;;;4.18;;
67528;SDS011;54366;51.980;5.856;2024-02-04T13:55:03;6.75;;;4.05;;
67528;SDS011;54366;51.980;5.856;2024-02-04T13:57:31;10.00;;;5.10;;
67528;SDS011;54366;51.980;5.856;2024-02-04T13:59:58;8.50;;;4.90;;
67528;SDS011;54366;51.980;5.856;2024-02-04T14:02:24;8.48;;;3.95;;
67528;SDS011;54366;51.980;5.856;2024-02-04T14:04:52;7.65;;;3.83;;
67528;SDS011;54366;51.980;5.856;2024-02-04T14:07:18;8.52;;;4.00;;
67528;SDS011;54366;51.980;5.856;2024-02-04T14:09:45;8.27;;;3.33;;
67528;SDS011;54366;51.980;5.856;2024-02-04T14:12:11;9.30;;;4.00;;
67528;SDS011;54366;51.980;5.856;2024-02-04T14:14:39;7.90;;;3.40;;
67528;SDS011;54366;51.980;5.856;2024-02-04T14:17:06;7.18;;;4.00;;
67528;SDS011;54366;51.980;5.856;2024-02-04T14:19:32;8.32;;;3.90;;
67528;SDS011;54366;51.980;5.856;2024-02-04T14:21:58;8.93;;;4.13;;
67528;SDS011;54366;51.980;5.856;2024-02-04T14:24:25;7.28;;;3.83;;
67528;SDS011;54366;51.980;5.856;2024-02-04T14:26:57;8.07;;;4.25;;
67528;SDS011;54366;51.980;5.856;2024-02-04T14:29:25;7.07;;;3.70;;
67528;SDS011;54366;51.980;5.856;2024-02-04T14:31:52;10.48;;;4.32;;
67528;SDS011;54366;51.980;5.856;2024-02-04T14:34:18;10.75;;;4.20;;
67528;SDS011;54366;51.980;5.856;2024-02-04T14:36:44;6.53;;;3.75;;
67528;SDS011;54366;51.980;5.856;2024-02-04T14:39:11;10.13;;;3.92;;
67528;SDS011;54366;51.980;5.856;2024-02-04T14:41:37;7.97;;;3.10;;
67528;SDS011;54366;51.980;5.856;2024-02-04T14:44:03;8.45;;;3.75;;
67528;SDS011;54366;51.980;5.856;2024-02-04T14:46:30;7.53;;;3.65;;
67528;SDS011;54366;51.980;5.856;2024-02-04T14:48:56;5.28;;;3.10;;
67528;SDS011;54366;51.980;5.856;2024-02-04T14:51:22;7.70;;;3.42;;
67528;SDS011;54366;51.980;5.856;2024-02-04T14:53:49;6.60;;;2.97;;
67528;SDS011;54366;51.980;5.856;2024-02-04T14:56:15;9.73;;;3.70;;